createdAt,value
2023-04-12T00:01:08.057Z,0.38
2023-04-12T00:05:11.114Z,0.49
2023-04-12T00:09:12.606Z,0.64
2023-04-12T00:13:14.004Z,0.68
2023-04-12T00:17:15.418Z,0.71
2023-04-12T00:21:18.173Z,0.66
2023-04-12T00:25:19.722Z,0.53
2023-04-12T00:29:21.099Z,0.75
2023-04-12T00:33:22.689Z,1.00
2023-04-12T00:37:25.429Z,1.20
2023-04-12T00:41:26.910Z,1.30
2023-04-12T00:45:28.526Z,1.14
2023-04-12T00:49:30.970Z,0.97
2023-04-12T00:53:33.891Z,0.84
2023-04-12T00:57:37.132Z,0.79
2023-04-12T01:01:38.610Z,0.72
2023-04-12T01:05:45.369Z,0.69
2023-04-12T01:09:59.174Z,0.65
2023-04-12T01:14:06.967Z,0.60
2023-04-12T01:18:10.998Z,0.48
2023-04-12T01:22:26.002Z,0.40
2023-04-12T01:26:36.260Z,0.30
2023-04-12T01:30:40.110Z,0.23
2023-04-12T01:34:42.275Z,0.15
2023-04-12T01:38:44.501Z,0.13
2023-04-12T01:42:46.087Z,0.06
2023-04-12T01:46:49.077Z,0.07
2023-04-12T01:51:01.175Z,-0.03
2023-04-12T01:55:05.728Z,-0.10
2023-04-12T01:59:11.416Z,-0.09
2023-04-12T02:03:14.531Z,-0.17
2023-04-12T02:07:17.083Z,-0.12
2023-04-12T02:11:18.489Z,0.30
2023-04-12T02:15:20.247Z,0.59
2023-04-12T02:19:22.981Z,0.82
2023-04-12T02:23:24.374Z,0.87
2023-04-12T02:27:25.780Z,1.18
2023-04-12T02:31:27.178Z,1.36
2023-04-12T02:35:31.005Z,1.55
2023-04-12T02:39:32.520Z,1.54
2023-04-12T02:43:33.977Z,1.40
2023-04-12T02:47:35.467Z,1.38
2023-04-12T02:51:38.214Z,1.49
2023-04-12T02:55:39.718Z,1.48
2023-04-12T02:59:41.105Z,1.45
2023-04-12T03:03:42.767Z,1.37
2023-04-12T03:07:45.678Z,1.22
2023-04-12T03:11:47.240Z,1.18
2023-04-12T03:15:48.685Z,1.19
2023-04-12T03:19:50.084Z,1.10
2023-04-12T03:23:52.816Z,1.10
2023-04-12T03:27:54.210Z,1.13
2023-04-12T03:31:55.623Z,1.15
2023-04-12T03:35:57.115Z,1.13
2023-04-12T03:40:00.173Z,1.10
2023-04-12T03:44:01.573Z,1.13
2023-04-12T03:48:03.398Z,1.09
2023-04-12T03:52:05.693Z,1.05
2023-04-12T03:56:08.850Z,1.00
2023-04-12T04:00:11.563Z,0.92
2023-04-12T04:04:13.526Z,0.88
2023-04-12T04:08:15.188Z,0.85
2023-04-12T04:12:17.932Z,0.80
2023-04-12T04:16:19.476Z,0.81
2023-04-12T04:20:21.162Z,0.80
2023-04-12T04:24:22.559Z,0.70
2023-04-12T04:28:25.440Z,0.67
2023-04-12T04:32:26.853Z,0.65
2023-04-12T04:36:28.326Z,0.69
2023-04-12T04:40:29.723Z,0.65
2023-04-12T04:44:32.465Z,0.73
2023-04-12T04:48:33.858Z,0.81
2023-04-12T04:52:35.291Z,0.85
2023-04-12T04:56:36.682Z,0.82
2023-04-12T05:00:39.579Z,0.94
2023-04-12T05:04:40.964Z,1.07
2023-04-12T05:08:42.376Z,1.18
2023-04-12T05:12:43.776Z,1.21
2023-04-12T05:16:46.594Z,1.33
2023-04-12T05:20:48.021Z,1.45
2023-04-12T05:24:49.536Z,1.54
2023-04-12T05:28:51.968Z,1.60
2023-04-12T05:32:54.793Z,1.65
2023-04-12T05:36:56.316Z,1.71
2023-04-12T05:40:57.995Z,1.81
2023-04-12T05:44:59.422Z,1.92
2023-04-12T05:49:02.167Z,2.06
2023-04-12T05:53:03.710Z,2.10
2023-04-12T05:57:05.145Z,2.20
2023-04-12T06:01:06.689Z,2.45
2023-04-12T06:05:09.957Z,2.55
2023-04-12T06:09:11.393Z,2.69
2023-04-12T06:13:12.803Z,2.72
2023-04-12T06:17:14.223Z,2.80
2023-04-12T06:21:17.049Z,2.93
2023-04-12T06:25:18.626Z,3.17
2023-04-12T06:29:20.065Z,3.48
2023-04-12T06:33:21.509Z,3.67
2023-04-12T06:37:24.361Z,3.86
2023-04-12T06:41:25.819Z,4.13
2023-04-12T06:45:27.249Z,4.24
2023-04-12T06:49:28.699Z,4.36
2023-04-12T06:53:31.504Z,4.42
2023-04-12T06:57:33.098Z,4.59
2023-04-12T07:01:34.598Z,4.84
2023-04-12T07:05:37.939Z,5.07
2023-04-12T07:09:40.670Z,5.10
2023-04-12T07:13:43.451Z,5.21
2023-04-12T07:17:44.879Z,5.44
2023-04-12T07:21:46.290Z,5.67
2023-04-12T07:25:49.077Z,6.06
2023-04-12T07:29:51.381Z,6.34
2023-04-12T07:33:52.908Z,6.52
2023-04-12T07:37:54.361Z,6.80
2023-04-12T07:41:57.346Z,6.88
2023-04-12T07:45:58.920Z,7.13
2023-04-12T07:50:00.388Z,7.31
2023-04-12T07:54:01.885Z,7.60
2023-04-12T07:58:04.626Z,7.68
2023-04-12T08:02:06.759Z,7.91
2023-04-12T08:06:08.940Z,8.17
2023-04-12T08:10:10.651Z,8.33
2023-04-12T08:14:13.408Z,8.52
2023-04-12T08:18:15.549Z,8.68
2023-04-12T08:22:17.115Z,8.80
2023-04-12T08:26:18.643Z,9.18
2023-04-12T08:30:21.616Z,9.40
2023-04-12T08:34:23.063Z,9.62
2023-04-12T08:38:37.343Z,9.70
2023-04-12T08:42:46.035Z,9.92
2023-04-12T08:46:49.218Z,10.24
2023-04-12T08:50:52.076Z,10.34
2023-04-12T08:54:54.949Z,10.63
2023-04-12T08:58:57.772Z,10.79
2023-04-12T09:03:00.818Z,10.89
2023-04-12T09:07:02.336Z,11.08
2023-04-12T09:11:21.406Z,11.31
2023-04-12T09:15:22.822Z,11.24
2023-04-12T09:19:36.268Z,11.45
2023-04-12T09:23:37.671Z,11.60
2023-04-12T09:27:45.878Z,11.46
2023-04-12T09:31:55.333Z,11.76
2023-04-12T09:36:01.970Z,11.96
2023-04-12T09:40:05.557Z,11.93
2023-04-12T09:44:07.009Z,11.97
2023-04-12T09:48:19.032Z,12.09
2023-04-12T09:52:21.928Z,12.31
2023-04-12T09:56:24.256Z,12.25
2023-04-12T10:00:25.743Z,12.52
2023-04-12T10:04:28.512Z,12.55
2023-04-12T10:08:32.262Z,12.78
2023-04-12T10:12:35.870Z,12.68
2023-04-12T10:16:40.401Z,12.73
2023-04-12T10:20:42.111Z,12.47
2023-04-12T10:24:47.362Z,12.53
2023-04-12T10:29:23.527Z,12.62
2023-04-12T10:33:26.806Z,12.41
2023-04-12T10:37:58.747Z,12.58
2023-04-12T10:42:18.161Z,12.87
2023-04-12T10:46:48.120Z,12.77
2023-04-12T10:51:16.469Z,13.12
2023-04-12T10:55:27.947Z,13.17
2023-04-12T10:59:51.317Z,13.04
2023-04-12T11:04:06.363Z,13.01
2023-04-12T11:08:08.147Z,13.03
2023-04-12T11:12:14.115Z,13.14
2023-04-12T11:16:16.939Z,13.29
2023-04-12T11:20:19.804Z,13.30
2023-04-12T11:24:21.268Z,12.84
2023-04-12T11:28:28.580Z,13.33
2023-04-12T11:32:32.752Z,13.45
2023-04-12T11:36:34.189Z,13.48
2023-04-12T11:40:35.690Z,13.66
2023-04-12T11:44:55.302Z,13.17
2023-04-12T11:48:59.732Z,13.17
2023-04-12T11:53:11.375Z,13.38
2023-04-12T11:57:14.742Z,13.63
2023-04-12T12:01:19.634Z,13.94
2023-04-12T12:05:22.919Z,14.03
2023-04-12T12:09:25.743Z,14.44
2023-04-12T12:13:27.230Z,15.11
2023-04-12T12:17:28.702Z,15.61
2023-04-12T12:21:31.576Z,14.92
2023-04-12T12:25:33.033Z,14.60
2023-04-12T12:29:35.125Z,14.76
2023-04-12T12:33:46.338Z,14.83
2023-04-12T12:37:51.090Z,15.15
2023-04-12T12:41:53.745Z,15.83
2023-04-12T12:45:55.145Z,16.56
2023-04-12T12:49:56.604Z,16.99
2023-04-12T12:53:59.533Z,15.92
2023-04-12T13:02:05.523Z,13.81
2023-04-12T13:06:08.375Z,13.27
2023-04-12T13:10:11.529Z,13.39
2023-04-12T13:14:13.009Z,13.97
2023-04-12T13:18:14.504Z,14.17
2023-04-12T13:22:16.488Z,14.09
2023-04-12T13:26:19.378Z,14.19
2023-04-12T13:30:21.123Z,14.07
2023-04-12T13:34:22.656Z,13.91
2023-04-12T13:38:24.112Z,13.62
2023-04-12T13:42:26.886Z,13.57
2023-04-12T13:46:28.388Z,13.50
2023-04-12T13:50:29.923Z,13.38
2023-04-12T13:54:31.399Z,13.23
2023-04-12T13:58:34.181Z,13.18
2023-04-12T14:02:35.713Z,13.09
2023-04-12T14:06:37.183Z,13.24
2023-04-12T14:10:38.562Z,13.28
2023-04-12T14:14:41.444Z,13.22
2023-04-12T14:18:42.840Z,13.00
2023-04-12T14:22:44.249Z,12.76
2023-04-12T14:26:45.999Z,12.47
2023-04-12T14:30:52.923Z,12.18
2023-04-12T14:34:54.485Z,11.82
2023-04-12T14:38:56.056Z,11.64
2023-04-12T14:42:57.610Z,11.33
2023-04-12T14:47:00.364Z,11.24
2023-04-12T14:51:01.824Z,11.24
2023-04-12T14:55:06.030Z,11.19
2023-04-12T14:59:07.503Z,11.06
2023-04-12T15:03:10.577Z,10.76
2023-04-12T15:07:12.298Z,10.50
2023-04-12T15:11:13.864Z,10.42
2023-04-12T15:15:15.274Z,10.31
2023-04-12T15:19:21.701Z,10.17
2023-04-12T15:23:24.504Z,10.02
2023-04-12T15:27:27.315Z,9.86
2023-04-12T15:31:28.730Z,9.69
2023-04-12T15:35:31.512Z,9.62
2023-04-12T15:39:32.936Z,9.58
2023-04-12T15:43:34.516Z,9.64
2023-04-12T15:47:36.150Z,9.64
2023-04-12T15:51:39.009Z,9.65
2023-04-12T15:55:43.719Z,9.51
2023-04-12T15:59:45.192Z,9.38
2023-04-12T16:03:47.447Z,9.36
2023-04-12T16:07:50.621Z,9.23
2023-04-12T16:11:52.026Z,9.22
2023-04-12T16:15:53.444Z,9.21
2023-04-12T16:19:54.839Z,9.17
2023-04-12T16:23:57.880Z,9.28
2023-04-12T16:27:59.314Z,9.40
2023-04-12T16:32:00.795Z,9.47
2023-04-12T16:36:02.246Z,9.49
2023-04-12T16:40:06.362Z,9.40
2023-04-12T16:44:07.856Z,9.34
2023-04-12T16:48:11.617Z,9.34
2023-04-12T16:52:13.118Z,9.29
2023-04-12T16:56:15.946Z,9.29
2023-04-12T17:00:17.759Z,9.29
2023-04-12T17:04:19.219Z,9.37
2023-04-12T17:08:20.732Z,9.42
2023-04-12T17:12:23.544Z,9.45
2023-04-12T17:16:25.032Z,9.57
2023-04-12T17:20:27.076Z,9.62
2023-04-12T17:24:28.704Z,9.60
2023-04-12T17:28:31.629Z,9.53
2023-04-12T17:32:33.401Z,9.49
2023-04-12T17:36:34.812Z,9.49
2023-04-12T17:40:36.220Z,9.44
2023-04-12T17:44:39.024Z,9.40
2023-04-12T17:48:40.452Z,9.41
2023-04-12T17:52:41.866Z,9.42
2023-04-12T17:56:43.415Z,9.40
2023-04-12T18:00:46.150Z,9.38
2023-04-12T18:04:47.643Z,9.40
2023-04-12T18:08:49.047Z,9.33
2023-04-12T18:12:50.456Z,9.38
2023-04-12T18:16:53.261Z,9.29
2023-04-12T18:20:54.800Z,9.17
2023-04-12T18:24:56.249Z,9.15
2023-04-12T18:28:58.071Z,9.15
2023-04-12T18:33:03.412Z,9.11
2023-04-12T18:37:05.061Z,9.08
2023-04-12T18:41:06.632Z,9.03
2023-04-12T18:45:08.951Z,9.06
2023-04-12T18:49:11.822Z,9.06
2023-04-12T18:53:13.245Z,9.02
2023-04-12T18:57:15.451Z,8.94
2023-04-12T19:01:17.334Z,8.90
2023-04-12T19:05:20.509Z,8.83
2023-04-12T19:09:22.078Z,8.57
2023-04-12T19:13:24.162Z,8.42
2023-04-12T19:17:25.825Z,8.44
2023-04-12T19:21:29.752Z,8.52
2023-04-12T19:25:31.187Z,8.65
2023-04-12T19:29:32.636Z,8.70
2023-04-12T19:33:34.200Z,8.72
2023-04-12T19:37:37.088Z,8.74
2023-04-12T19:41:38.509Z,8.85
2023-04-12T19:45:40.315Z,8.83
2023-04-12T19:49:41.764Z,8.80
2023-04-12T19:53:44.559Z,8.77
2023-04-12T19:57:45.941Z,8.79
2023-04-12T20:01:47.548Z,8.82
2023-04-12T20:05:49.185Z,8.88
2023-04-12T20:09:51.921Z,8.95
2023-04-12T20:13:53.311Z,8.92
2023-04-12T20:17:54.735Z,8.87
2023-04-12T20:21:56.178Z,8.88
2023-04-12T20:25:58.916Z,8.90
2023-04-12T20:30:00.376Z,8.91
2023-04-12T20:34:01.835Z,8.93
2023-04-12T20:38:03.328Z,8.89
2023-04-12T20:42:06.332Z,8.94
2023-04-12T20:46:07.814Z,9.07
2023-04-12T20:50:09.780Z,9.09
2023-04-12T20:54:11.183Z,9.10
2023-04-12T20:58:13.944Z,9.13
2023-04-12T21:02:15.419Z,9.11
2023-04-12T21:06:16.918Z,9.16
2023-04-12T21:10:18.596Z,9.13
2023-04-12T21:14:21.600Z,9.16
2023-04-12T21:18:22.994Z,9.19
2023-04-12T21:22:24.565Z,9.24
2023-04-12T21:26:25.957Z,9.20
2023-04-12T21:30:28.712Z,9.22
2023-04-12T21:34:30.103Z,9.18
2023-04-12T21:38:31.506Z,9.19
2023-04-12T21:42:33.993Z,9.31
2023-04-12T21:46:36.728Z,9.36
2023-04-12T21:50:38.118Z,9.35
2023-04-12T21:59:43.124Z,9.44
2023-04-12T22:03:45.979Z,9.54
2023-04-12T22:07:47.473Z,9.51
2023-04-12T22:11:48.920Z,9.45
2023-04-12T22:15:50.472Z,9.51
2023-04-12T22:19:53.242Z,9.55
2023-04-12T22:23:54.746Z,9.55
2023-04-12T22:27:56.192Z,9.51
2023-04-12T22:31:57.749Z,9.52
2023-04-12T22:36:00.566Z,9.42
2023-04-12T22:40:02.308Z,9.35
2023-04-12T22:44:03.934Z,9.30
2023-04-12T22:48:05.467Z,9.25
2023-04-12T22:52:08.268Z,9.34
2023-04-12T22:56:09.726Z,9.34
2023-04-12T23:00:13.442Z,9.31
2023-04-12T23:04:16.471Z,9.29
2023-04-12T23:08:19.245Z,9.29
2023-04-12T23:12:20.637Z,9.36
2023-04-12T23:16:22.200Z,9.40
2023-04-12T23:20:23.664Z,9.51
2023-04-12T23:24:27.693Z,9.60
2023-04-12T23:28:29.114Z,9.59
2023-04-12T23:32:30.526Z,9.54
2023-04-12T23:36:32.839Z,9.56
2023-04-12T23:40:35.642Z,9.54
2023-04-12T23:44:37.109Z,9.53
2023-04-12T23:48:38.597Z,9.59
2023-04-12T23:52:40.074Z,9.58
2023-04-12T23:56:42.885Z,9.58
